This is the latest recevied weather packets stored in our database for station/object K4HOG. If no packets are shown the sender has not sent any weather packets the latest 10 day(s).
| Time | Temp. | Humidity | Pressure | Rain* | Wind** | Luminosity | Snow |
|---|---|---|---|---|---|---|---|
| 1777647238 | 28.89° C | 62% | 1012.3 hPa | 0 mm | - | 364 W/m² | - |
| 1777646936 | 28.33° C | 65% | 1012.3 hPa | 0 mm | - | 124 W/m² | - |
| 1777646631 | 28.33° C | 64% | 1012.5 hPa | 0 mm | - | 368 W/m² | - |
| 1777646327 | 27.78° C | 66% | 1012.4 hPa | 0 mm | - | 271 W/m² | - |
| 1777646024 | 27.78° C | 65% | 1012.5 hPa | 0 mm | - | 132 W/m² | - |
| 1777645721 | 27.78° C | 64% | 1012.4 hPa | 0 mm | - | 129 W/m² | - |
| 1777645418 | 27.22° C | 68% | 1012.7 hPa | 0 mm | - | 244 W/m² | - |
| 1777645113 | 27.78° C | 65% | 1012.6 hPa | 0 mm | - | 139 W/m² | - |
| 1777644810 | 27.22° C | 68% | 1012.6 hPa | 0 mm | - | 91 W/m² | - |
| 1777644508 | 27.22° C | 69% | 1012.4 hPa | 0 mm | - | 76 W/m² | - |
| 1777644204 | 26.67° C | 69% | 1012.5 hPa | 0 mm | - | 72 W/m² | - |
| 1777643900 | 26.67° C | 70% | 1012.4 hPa | 0 mm | - | 86 W/m² | - |
| 1777643598 | 26.67° C | 70% | 1012.4 hPa | 0 mm | - | 106 W/m² | - |
| 1777643295 | 26.11° C | 71% | 1012.3 hPa | 0 mm | - | 134 W/m² | - |
| 1777642991 | 26.11° C | 73% | 1012 hPa | 0 mm | - | 195 W/m² | - |
| 1777642688 | 25.56° C | 74% | 1012.1 hPa | 0 mm | - | 170 W/m² | - |
| 1777642385 | 25.56° C | 76% | 1012.1 hPa | 0 mm | - | 62 W/m² | - |
| 1777642081 | 25° C | 78% | 1012.2 hPa | 0 mm | - | 96 W/m² | - |
| 1777641778 | 25° C | 80% | 1012.2 hPa | 0 mm | - | 85 W/m² | - |
| 1777641478 | 25° C | 81% | 1012.4 hPa | 0 mm | - | 77 W/m² | - |
| 1777641173 | 25° C | 81% | 1012.3 hPa | 0 mm | - | 106 W/m² | - |
| 1777640869 | 25° C | 84% | 1012.1 hPa | 0 mm | - | 125 W/m² | - |
| 1777640567 | 24.44° C | 86% | 1012.2 hPa | 0 mm | - | 80 W/m² | - |
| 1777640263 | 23.89° C | 88% | 1012.2 hPa | 0 mm | - | 120 W/m² | - |
| 1777639959 | 23.89° C | 90% | 1012.2 hPa | 0 mm | - | 71 W/m² | - |
* Rain latest hour (hover to see other rain measurements)
** Current wind speed in m/s (hover to see current wind gust speed)